Time;durP1;ratioP1;P1;durP2;ratioP2;P2;SDS_P1;SDS_P2;PMS_P1;PMS_P2;Temp;Humidity;BMP_temperature;BMP_pressure;BME280_temperature;BME280_humidity;BME280_pressure;Samples;Min_cycle;Max_cycle;Signal;HPM_P1;HPM_P2
2022/05/28 00:00:38;;;;;;;19.35;9.13;;;17.50;99.90;;;;;;5063107;28;20040;-75
2022/05/28 00:03:05;;;;;;;16.55;8.63;;;17.40;99.90;;;;;;5072858;28;20110;-75
2022/05/28 00:05:34;;;;;;;14.75;8.43;;;17.30;99.90;;;;;;5073560;28;20123;-75
2022/05/28 00:08:01;;;;;;;17.15;9.30;;;17.20;99.90;;;;;;5070113;28;20044;-75
2022/05/28 00:10:28;;;;;;;19.85;9.52;;;17.10;99.90;;;;;;5056505;28;20458;-75
2022/05/28 00:12:58;;;;;;;19.77;9.18;;;17.20;99.90;;;;;;5064520;28;20456;-75
2022/05/28 00:15:25;;;;;;;20.63;11.70;;;17.20;99.90;;;;;;5073279;28;20040;-75
2022/05/28 00:17:53;;;;;;;18.83;9.73;;;17.10;99.90;;;;;;5072522;28;20049;-75
2022/05/28 00:20:20;;;;;;;14.25;9.40;;;17.10;99.90;;;;;;5073444;28;20040;-75
2022/05/28 00:22:49;;;;;;;22.60;9.27;;;17.10;99.90;;;;;;5068194;28;20416;-75
2022/05/28 00:25:17;;;;;;;21.70;8.88;;;17.20;99.90;;;;;;5061185;28;20037;-75
2022/05/28 00:27:48;;;;;;;13.43;8.25;;;17.20;99.90;;;;;;5072071;28;20041;-75
2022/05/28 00:30:17;;;;;;;17.48;7.63;;;17.20;99.90;;;;;;5071893;28;20083;-75
2022/05/28 00:32:44;;;;;;;12.88;8.60;;;17.20;99.90;;;;;;5072816;28;20162;-75
2022/05/28 00:35:15;;;;;;;17.85;8.40;;;17.30;99.90;;;;;;5072988;28;20475;-75
2022/05/28 00:37:43;;;;;;;16.33;8.93;;;17.20;99.90;;;;;;5057089;28;20128;-75
2022/05/28 00:40:15;;;;;;;16.10;8.07;;;17.20;99.90;;;;;;5051532;28;20091;-75
2022/05/28 00:42:42;;;;;;;16.92;8.23;;;17.20;99.90;;;;;;5052797;28;20068;-75
2022/05/28 00:45:11;;;;;;;18.05;8.90;;;17.10;99.90;;;;;;5054550;28;20453;-75
2022/05/28 00:47:44;;;;;;;15.45;7.93;;;17.10;99.90;;;;;;5060940;28;20033;-75
2022/05/28 00:50:13;;;;;;;19.30;8.35;;;17.00;99.90;;;;;;5061830;28;20047;-76
2022/05/28 00:52:42;;;;;;;14.27;8.73;;;16.90;99.90;;;;;;5056816;28;20033;-75
2022/05/28 00:55:11;;;;;;;15.13;8.40;;;16.90;99.90;;;;;;5061759;28;20080;-75
2022/05/28 00:57:41;;;;;;;21.88;8.73;;;16.80;99.90;;;;;;5066825;28;20060;-75
2022/05/28 01:00:11;;;;;;;14.07;7.63;;;16.80;99.90;;;;;;5065079;28;20029;-75
2022/05/28 01:02:46;;;;;;;13.02;7.30;;;16.90;99.90;;;;;;5066427;28;20052;-75
2022/05/28 01:05:22;;;;;;;12.57;7.33;;;16.80;99.90;;;;;;5064982;28;20036;-75
2022/05/28 01:08:00;;;;;;;14.95;8.15;;;16.90;99.90;;;;;;5057866;28;20111;-75
2022/05/28 01:10:36;;;;;;;18.77;8.23;;;17.00;99.90;;;;;;5063723;28;20036;-76
2022/05/28 01:13:06;;;;;;;;;;;17.00;99.90;;;;;;5064713;28;20499;-76
2022/05/28 01:15:37;;;;;;;16.92;8.93;;;17.10;99.90;;;;;;5036569;28;20383;-75
2022/05/28 01:18:11;;;;;;;19.67;9.02;;;17.10;99.90;;;;;;5058894;28;20068;-75
2022/05/28 01:20:42;;;;;;;18.30;9.70;;;17.10;99.90;;;;;;5057227;28;20028;-75
2022/05/28 01:23:33;;;;;;;17.10;9.27;;;17.10;99.90;;;;;;5054631;28;20075;-76
2022/05/28 01:26:10;;;;;;;17.83;9.20;;;17.00;99.90;;;;;;5055799;28;20507;-75
2022/05/28 01:28:44;;;;;;;14.85;8.88;;;17.00;99.90;;;;;;5057035;28;20094;-75
2022/05/28 01:31:13;;;;;;;16.00;9.35;;;16.80;99.90;;;;;;5054982;28;20423;-76
2022/05/28 01:33:43;;;;;;;16.77;9.48;;;16.80;99.90;;;;;;5055747;28;20489;-76
2022/05/28 01:36:13;;;;;;;12.20;7.80;;;16.80;99.90;;;;;;5056213;28;20095;-76
2022/05/28 01:38:42;;;;;;;14.70;8.85;;;16.80;99.90;;;;;;5054790;28;20064;-77
2022/05/28 01:41:10;;;;;;;19.27;9.10;;;16.90;99.90;;;;;;5055715;28;20068;-76
2022/05/28 01:43:43;;;;;;;21.58;14.95;;;17.00;99.90;;;;;;5056000;28;20488;-76
2022/05/28 01:46:13;;;;;;;17.90;10.38;;;17.20;99.90;;;;;;5056058;28;20049;-76
2022/05/28 01:48:43;;;;;;;15.40;9.07;;;17.40;99.90;;;;;;5060694;28;20036;-76
2022/05/28 01:51:13;;;;;;;15.18;8.90;;;17.40;99.90;;;;;;5064107;28;20051;-76
2022/05/28 01:56:26;;;;;;;14.38;10.18;;;17.50;99.90;;;;;;5055799;28;20037;-76
2022/05/28 01:58:55;;;;;;;17.80;10.73;;;17.70;99.90;;;;;;5055404;28;20071;-76
2022/05/28 02:01:22;;;;;;;16.05;10.63;;;17.90;99.90;;;;;;5055909;28;20045;-76
2022/05/28 02:03:53;;;;;;;25.50;10.40;;;18.10;99.90;;;;;;5053781;28;20515;-76
2022/05/28 02:06:20;;;;;;;19.27;10.75;;;18.30;99.90;;;;;;5065382;28;20045;-76
2022/05/28 02:08:50;;;;;;;19.50;8.93;;;18.40;99.90;;;;;;5063699;28;20424;-76
2022/05/28 02:11:21;;;;;;;15.75;10.00;;;18.50;99.90;;;;;;5065523;28;20447;-77
2022/05/28 02:14:02;;;;;;;17.45;9.48;;;18.50;99.90;;;;;;5075272;28;20492;-76
2022/05/28 02:16:38;;;;;;;14.07;9.20;;;18.50;99.90;;;;;;5075499;28;20055;-76
2022/05/28 02:19:09;;;;;;;21.13;8.63;;;18.50;99.90;;;;;;5069019;28;20041;-76
2022/05/28 02:21:44;;;;;;;13.32;8.15;;;18.60;99.90;;;;;;5063172;28;20044;-76
2022/05/28 02:24:17;;;;;;;13.75;7.28;;;18.40;99.90;;;;;;5071970;28;20094;-76
2022/05/28 02:26:48;;;;;;;14.20;6.43;;;18.30;99.90;;;;;;5075124;28;20068;-76
2022/05/28 02:29:18;;;;;;;11.77;5.93;;;18.20;99.90;;;;;;5074980;28;20041;-75
2022/05/28 02:31:47;;;;;;;13.00;5.30;;;18.20;99.90;;;;;;5073761;28;20407;-76
2022/05/28 02:34:16;;;;;;;10.38;4.38;;;18.20;99.90;;;;;;5065147;28;20041;-75
2022/05/28 02:36:44;;;;;;;4.60;2.95;;;18.20;99.90;;;;;;5054919;28;20053;-76
2022/05/28 02:39:12;;;;;;;4.38;2.53;;;18.10;99.90;;;;;;5055126;28;20413;-75
2022/05/28 02:41:39;;;;;;;6.50;2.38;;;18.00;99.90;;;;;;5067540;28;20506;-75
2022/05/28 02:44:09;;;;;;;7.55;2.17;;;18.00;99.90;;;;;;5066591;28;20052;-76
2022/05/28 02:46:38;;;;;;;4.75;2.28;;;17.90;99.90;;;;;;5085014;28;20044;-76
2022/05/28 02:49:05;;;;;;;5.25;2.30;;;17.90;99.90;;;;;;5077961;28;20047;-76
2022/05/28 02:51:34;;;;;;;2.95;1.98;;;17.90;99.90;;;;;;5066937;28;20049;-75
2022/05/28 02:54:01;;;;;;;3.70;2.15;;;17.90;99.90;;;;;;5059866;28;20122;-75
2022/05/28 02:56:29;;;;;;;3.50;1.85;;;17.90;99.90;;;;;;5055542;28;20045;-75
2022/05/28 02:58:56;;;;;;;5.10;1.85;;;17.90;99.90;;;;;;5054961;28;20044;-75
2022/05/28 03:01:26;;;;;;;6.68;1.75;;;17.90;99.90;;;;;;5054648;28;20094;-75
2022/05/28 03:03:56;;;;;;;4.15;1.60;;;17.90;99.90;;;;;;5060475;28;20260;-75
2022/05/28 03:06:23;;;;;;;3.65;1.50;;;17.90;99.90;;;;;;5063517;28;20051;-76
2022/05/28 03:08:51;;;;;;;4.63;1.70;;;17.90;99.90;;;;;;5069124;28;20052;-75
2022/05/28 03:11:18;;;;;;;5.75;1.83;;;17.90;99.90;;;;;;5074407;28;20037;-74
2022/05/28 03:13:46;;;;;;;5.55;1.85;;;18.00;99.90;;;;;;5063740;28;20041;-75
2022/05/28 03:16:13;;;;;;;6.57;1.75;;;18.00;99.90;;;;;;5055337;28;20053;-75
2022/05/28 03:18:41;;;;;;;3.20;1.55;;;18.00;99.90;;;;;;5054484;28;20049;-75
2022/05/28 03:21:10;;;;;;;5.78;1.98;;;18.10;99.90;;;;;;5054250;28;20098;-76
2022/05/28 03:23:38;;;;;;;6.65;1.80;;;18.00;99.90;;;;;;5053802;28;20044;-76
2022/05/28 03:26:13;;;;;;;4.85;1.98;;;18.00;99.90;;;;;;5070688;28;20381;-76
2022/05/28 03:28:40;;;;;;;7.75;2.20;;;18.00;99.90;;;;;;5057448;28;20095;-75
2022/05/28 03:31:07;;;;;;;6.30;2.40;;;18.00;99.90;;;;;;5053908;28;20048;-75
2022/05/28 03:33:35;;;;;;;8.65;2.30;;;18.00;99.90;;;;;;5052492;28;20044;-75
2022/05/28 03:36:02;;;;;;;5.97;2.42;;;18.00;99.90;;;;;;5053879;28;20037;-76
2022/05/28 03:38:31;;;;;;;8.60;2.60;;;18.00;99.90;;;;;;5052422;28;20056;-76
2022/05/28 03:40:59;;;;;;;7.90;3.17;;;18.00;99.90;;;;;;5052107;28;20488;-76
2022/05/28 03:43:26;;;;;;;4.75;2.65;;;18.00;99.90;;;;;;5054924;28;20045;-76
2022/05/28 03:45:54;;;;;;;7.60;2.45;;;17.90;99.90;;;;;;5065151;28;20055;-76
2022/05/28 03:48:22;;;;;;;4.13;1.83;;;17.90;99.90;;;;;;5073855;28;20036;-76
2022/05/28 03:50:50;;;;;;;6.53;1.98;;;17.90;99.90;;;;;;5073565;28;20094;-76
2022/05/28 03:53:17;;;;;;;4.82;2.00;;;17.80;99.90;;;;;;5073600;28;20049;-75
2022/05/28 03:55:46;;;;;;;5.28;1.90;;;17.60;99.90;;;;;;5068179;28;20404;-76
2022/05/28 03:58:14;;;;;;;6.10;1.63;;;17.50;99.90;;;;;;5052110;28;20056;-76
2022/05/28 04:00:42;;;;;;;3.38;1.65;;;17.40;99.90;;;;;;5053298;28;20045;-76
2022/05/28 04:03:09;;;;;;;3.28;1.30;;;17.40;99.90;;;;;;5052772;28;20052;-76
2022/05/28 04:05:38;;;;;;;4.25;1.67;;;17.50;99.90;;;;;;5053410;28;20060;-76
2022/05/28 04:08:06;;;;;;;4.75;1.85;;;17.40;99.90;;;;;;5053760;28;20084;-76
2022/05/28 04:10:33;;;;;;;5.78;1.80;;;17.50;99.90;;;;;;5053272;28;20040;-76
2022/05/28 04:13:02;;;;;;;2.72;1.58;;;17.60;99.90;;;;;;5053207;28;20048;-75
2022/05/28 04:15:31;;;;;;;2.60;1.50;;;17.60;99.90;;;;;;5053896;28;20044;-75
2022/05/28 04:17:59;;;;;;;3.05;1.30;;;17.80;99.90;;;;;;5054030;28;20071;-76
2022/05/28 04:20:26;;;;;;;2.45;1.10;;;17.90;99.90;;;;;;5054034;28;20045;-76
2022/05/28 04:22:54;;;;;;;2.80;1.50;;;18.00;99.90;;;;;;5051564;28;20052;-76
2022/05/28 04:25:21;;;;;;;4.97;1.80;;;17.90;99.90;;;;;;5052622;28;20523;-76
2022/05/28 04:27:48;;;;;;;5.63;1.55;;;18.10;99.90;;;;;;5053065;28;20045;-76
2022/05/28 04:30:17;;;;;;;8.77;1.67;;;18.20;99.90;;;;;;5056483;28;20044;-76
2022/05/28 04:32:45;;;;;;;3.03;1.65;;;18.30;99.90;;;;;;5061598;28;20048;-76
2022/05/28 04:35:12;;;;;;;4.38;1.70;;;18.30;99.90;;;;;;5053083;28;20519;-76
2022/05/28 04:37:40;;;;;;;3.53;1.10;;;18.40;99.90;;;;;;5051625;28;20049;-78
2022/05/28 04:40:08;;;;;;;4.82;2.05;;;18.20;99.90;;;;;;5051330;28;20045;-75
2022/05/28 04:42:36;;;;;;;5.95;1.40;;;18.10;99.90;;;;;;5052256;28;20049;-76
2022/05/28 04:45:03;;;;;;;4.80;1.60;;;18.10;99.90;;;;;;5053041;28;20504;-76
2022/05/28 04:47:32;;;;;;;7.15;1.70;;;18.20;99.90;;;;;;5057012;28;20049;-76
2022/05/28 04:50:00;;;;;;;5.85;1.70;;;18.00;99.90;;;;;;5056632;28;20037;-76
2022/05/28 04:52:27;;;;;;;4.45;1.83;;;18.00;99.90;;;;;;5056387;28;20056;-76
2022/05/28 04:54:55;;;;;;;6.10;2.00;;;18.10;99.90;;;;;;5056262;28;20060;-76
2022/05/28 04:57:22;;;;;;;7.55;2.03;;;18.10;99.90;;;;;;5054821;28;20052;-75
2022/05/28 04:59:50;;;;;;;5.28;2.22;;;18.20;99.90;;;;;;5056365;28;20120;-76
2022/05/28 05:02:17;;;;;;;3.70;1.50;;;18.30;99.90;;;;;;5055618;28;20047;-76
2022/05/28 05:04:46;;;;;;;5.97;2.45;;;18.20;99.90;;;;;;5055779;28;20049;-77
2022/05/28 05:07:13;;;;;;;4.10;1.75;;;18.20;99.90;;;;;;5036921;28;20051;-77
2022/05/28 05:09:41;;;;;;;4.22;1.90;;;18.30;99.90;;;;;;5056991;28;20043;-76
2022/05/28 05:12:09;;;;;;;6.47;2.08;;;18.40;99.90;;;;;;5062606;28;20063;-76
2022/05/28 05:14:36;;;;;;;4.78;2.15;;;18.40;99.90;;;;;;5068102;28;20044;-77
2022/05/28 05:17:04;;;;;;;5.45;2.38;;;18.50;99.90;;;;;;5074515;28;20052;-77
2022/05/28 05:19:31;;;;;;;6.13;2.60;;;18.60;99.90;;;;;;5068083;28;20036;-77
2022/05/28 05:22:00;;;;;;;5.97;2.25;;;18.50;99.90;;;;;;5062757;28;20040;-77
2022/05/28 05:24:28;;;;;;;8.02;2.13;;;18.60;99.90;;;;;;5068915;28;20152;-76
2022/05/28 05:26:55;;;;;;;8.40;2.30;;;18.60;99.90;;;;;;5066020;28;20040;-77
2022/05/28 05:29:22;;;;;;;5.82;1.80;;;18.40;99.90;;;;;;5044009;28;20053;-77
2022/05/28 05:31:50;;;;;;;8.63;2.45;;;18.50;99.90;;;;;;5056091;28;20036;-77
2022/05/28 05:34:17;;;;;;;5.22;1.67;;;18.50;99.90;;;;;;5056408;28;20112;-77
2022/05/28 05:36:45;;;;;;;6.57;2.88;;;18.80;99.90;;;;;;5061225;28;20045;-77
2022/05/28 05:39:13;;;;;;;4.47;2.10;;;18.80;99.90;;;;;;5064606;28;20044;-77
2022/05/28 05:41:41;;;;;;;3.08;1.98;;;19.10;99.90;;;;;;5062115;28;20059;-77
2022/05/28 05:44:09;;;;;;;4.93;2.08;;;19.40;99.90;;;;;;5055993;28;20048;-75
2022/05/28 05:46:40;;;;;;;2.78;1.90;;;19.60;99.90;;;;;;5053720;28;20420;-76
2022/05/28 05:49:08;;;;;;;5.03;1.50;;;19.70;99.90;;;;;;5054753;28;20465;-77
2022/05/28 05:51:39;;;;;;;3.88;1.52;;;19.80;99.90;;;;;;5034081;28;20556;-77
2022/05/28 05:54:07;;;;;;;4.03;1.60;;;19.70;99.90;;;;;;5048513;28;20044;-77
2022/05/28 05:56:36;;;;;;;6.97;1.60;;;19.50;99.90;;;;;;5054728;28;20045;-77
2022/05/28 05:59:03;;;;;;;4.07;1.50;;;19.30;99.90;;;;;;5043140;28;20049;-76
2022/05/28 06:01:30;;;;;;;5.70;2.08;;;19.10;99.90;;;;;;5039436;28;20433;-77
2022/05/28 06:03:58;;;;;;;3.50;1.90;;;19.00;99.90;;;;;;5054792;28;20123;-77
2022/05/28 06:06:27;;;;;;;3.60;1.70;;;19.00;99.90;;;;;;5055244;28;20037;-77
2022/05/28 06:08:54;;;;;;;5.10;1.63;;;19.10;99.90;;;;;;5055519;28;20044;-77
2022/05/28 06:11:21;;;;;;;3.05;1.40;;;19.20;99.90;;;;;;5053758;28;20044;-77
2022/05/28 06:13:50;;;;;;;4.32;1.88;;;19.30;99.90;;;;;;5054662;28;20488;-75
2022/05/28 06:16:18;;;;;;;3.70;1.80;;;19.30;99.90;;;;;;5055613;28;20041;-76
2022/05/28 06:18:46;;;;;;;4.40;1.77;;;19.50;99.90;;;;;;5054857;28;20033;-77
2022/05/28 06:21:13;;;;;;;7.72;2.50;;;19.20;99.90;;;;;;5055161;28;20132;-78
2022/05/28 06:23:41;;;;;;;5.13;1.60;;;19.40;99.90;;;;;;5055934;28;20060;-78
2022/05/28 06:26:10;;;;;;;7.38;2.25;;;19.40;99.90;;;;;;5061882;28;20069;-76
2022/05/28 06:28:37;;;;;;;3.28;1.70;;;19.60;99.90;;;;;;5054071;28;20040;-76
2022/05/28 06:31:08;;;;;;;7.50;2.00;;;19.80;99.90;;;;;;5054691;28;20047;-77
2022/05/28 06:33:37;;;;;;;7.95;2.30;;;19.50;99.90;;;;;;5054885;28;20041;-76
2022/05/28 06:36:07;;;;;;;5.38;1.98;;;19.50;99.90;;;;;;5055282;28;20051;-77
2022/05/28 06:38:35;;;;;;;4.32;1.45;;;19.50;99.90;;;;;;5055556;28;20084;-78
2022/05/28 06:41:02;;;;;;;5.43;1.70;;;19.30;99.90;;;;;;5042854;28;20381;-77
2022/05/28 06:43:30;;;;;;;4.72;1.70;;;19.10;99.90;;;;;;5034798;28;20406;-76
2022/05/28 06:46:00;;;;;;;4.03;1.90;;;19.10;99.90;;;;;;5034912;28;20117;-79
2022/05/28 06:48:29;;;;;;;4.63;1.70;;;19.30;99.90;;;;;;5035627;28;20401;-77
2022/05/28 06:51:02;;;;;;;3.67;1.67;;;19.30;99.90;;;;;;5036210;28;20044;-77
2022/05/28 06:53:30;;;;;;;5.38;2.33;;;19.10;99.90;;;;;;5054104;28;20044;-77
2022/05/28 06:55:57;;;;;;;6.55;2.00;;;19.00;99.90;;;;;;5039977;28;20045;-77
2022/05/28 06:58:25;;;;;;;5.85;1.90;;;19.00;99.90;;;;;;5053431;28;20052;-76
2022/05/28 07:00:52;;;;;;;6.20;2.22;;;19.10;99.90;;;;;;5054543;28;20041;-77
2022/05/28 07:03:22;;;;;;;3.28;1.85;;;19.00;99.90;;;;;;5054248;28;20044;-77
2022/05/28 07:05:50;;;;;;;5.35;2.35;;;19.10;99.90;;;;;;5053651;28;20085;-77
2022/05/28 07:08:18;;;;;;;4.68;2.45;;;19.00;99.90;;;;;;5054298;28;20416;-79
2022/05/28 07:10:48;;;;;;;5.10;2.55;;;19.10;99.90;;;;;;5062614;28;20059;-77
2022/05/28 07:13:16;;;;;;;6.85;2.50;;;18.80;99.90;;;;;;5046878;28;20108;-76
2022/05/28 07:15:44;;;;;;;5.63;2.70;;;18.80;99.90;;;;;;5051758;28;20041;-76
2022/05/28 07:18:11;;;;;;;5.57;3.03;;;19.00;99.90;;;;;;5048681;28;20497;-77
2022/05/28 07:20:39;;;;;;;7.05;2.90;;;18.80;99.90;;;;;;5032885;28;20054;-77
2022/05/28 07:23:14;;;;;;;7.32;3.75;;;18.80;99.90;;;;;;5040626;28;20040;-76
2022/05/28 07:25:42;;;;;;;3.55;2.72;;;18.90;99.90;;;;;;5042339;28;20049;-77
2022/05/28 07:28:29;;;;;;;6.32;2.65;;;18.90;99.90;;;;;;5034382;28;20091;-76
2022/05/28 07:30:58;;;;;;;3.53;2.72;;;18.80;99.90;;;;;;5033693;28;20386;-76
2022/05/28 07:33:27;;;;;;;6.18;3.00;;;18.80;99.90;;;;;;5034971;28;20045;-77
2022/05/28 07:35:55;;;;;;;5.70;3.03;;;18.90;99.90;;;;;;5034457;28;20049;-76
2022/05/28 07:38:25;;;;;;;5.03;2.75;;;19.10;99.90;;;;;;5034265;28;20123;-75
2022/05/28 07:40:53;;;;;;;6.75;3.50;;;19.30;99.90;;;;;;5037431;28;20041;-77
2022/05/28 07:43:23;;;;;;;12.68;4.00;;;19.30;99.90;;;;;;5053342;28;20060;-77
2022/05/28 07:45:51;;;;;;;6.88;3.15;;;19.50;99.90;;;;;;5053917;28;20051;-77
2022/05/28 07:48:18;;;;;;;8.48;2.95;;;20.00;99.90;;;;;;5053884;28;20060;-78
2022/05/28 07:50:46;;;;;;;6.35;2.95;;;20.20;99.90;;;;;;5053637;28;20049;-77
2022/05/28 07:53:13;;;;;;;5.03;2.42;;;20.40;99.90;;;;;;5053499;28;20404;-77
2022/05/28 07:55:42;;;;;;;4.47;2.42;;;20.40;99.90;;;;;;5053581;28;20044;-76
2022/05/28 07:58:11;;;;;;;4.60;2.17;;;19.90;99.90;;;;;;5053493;28;20124;-78
2022/05/28 08:00:40;;;;;;;7.00;2.45;;;19.70;99.90;;;;;;5054684;28;20049;-77
2022/05/28 08:03:08;;;;;;;6.13;2.03;;;19.50;99.90;;;;;;5053177;28;20049;-75
2022/05/28 08:05:37;;;;;;;4.25;2.17;;;19.40;99.90;;;;;;5053912;28;20041;-76
2022/05/28 08:08:05;;;;;;;5.88;2.10;;;19.50;99.90;;;;;;5054266;28;20041;-76
2022/05/28 08:10:32;;;;;;;5.43;2.60;;;19.50;99.90;;;;;;5053215;28;20056;-76
2022/05/28 08:13:06;;;;;;;6.75;2.88;;;19.50;99.90;;;;;;5053172;28;20037;-77
2022/05/28 08:15:34;;;;;;;6.25;2.80;;;19.60;99.90;;;;;;5052830;28;20048;-76
2022/05/28 08:18:02;;;;;;;9.55;2.55;;;19.60;99.90;;;;;;5053459;28;20481;-77
2022/05/28 08:23:10;;;;;;;7.05;2.20;;;19.20;99.90;;;;;;5054106;28;20045;-77
2022/05/28 08:25:39;;;;;;;5.38;2.38;;;19.30;99.90;;;;;;5053335;28;20492;-76
2022/05/28 08:28:08;;;;;;;4.15;2.25;;;19.20;99.90;;;;;;5054212;28;20518;-75
2022/05/28 08:30:37;;;;;;;7.50;2.60;;;19.30;99.90;;;;;;5038631;28;20061;-76
2022/05/28 08:33:06;;;;;;;7.82;2.90;;;19.40;99.90;;;;;;5039496;28;20190;-77
2022/05/28 08:35:34;;;;;;;6.65;2.58;;;19.40;99.90;;;;;;5054152;28;20199;-76
2022/05/28 08:38:05;;;;;;;6.40;3.00;;;19.40;99.90;;;;;;5053786;28;20111;-76
2022/05/28 08:40:35;;;;;;;6.38;3.05;;;18.90;99.90;;;;;;5040097;28;20034;-78
2022/05/28 08:43:03;;;;;;;5.32;2.70;;;18.80;99.90;;;;;;5053528;28;20071;-77
2022/05/28 08:45:34;;;;;;;5.30;2.83;;;18.60;99.90;;;;;;5053742;28;20091;-76
2022/05/28 08:48:03;;;;;;;6.18;3.00;;;18.30;99.90;;;;;;5053368;28;20045;-77
2022/05/28 08:50:34;;;;;;;7.32;2.90;;;18.10;99.90;;;;;;5053266;28;20500;-76
2022/05/28 08:53:07;;;;;;;10.43;2.90;;;18.30;99.90;;;;;;5047688;28;20052;-75
2022/05/28 08:55:41;;;;;;;7.60;3.15;;;18.40;99.90;;;;;;5033637;28;20508;-75
2022/05/28 08:58:12;;;;;;;5.15;2.40;;;18.40;99.90;;;;;;5058957;28;20041;-76
2022/05/28 09:00:45;;;;;;;7.13;2.40;;;18.30;99.90;;;;;;5059958;28;20489;-77
2022/05/28 09:03:16;;;;;;;4.10;2.60;;;18.30;99.90;;;;;;5060543;28;20041;-76
2022/05/28 09:05:50;;;;;;;3.33;2.17;;;18.40;99.90;;;;;;5058335;28;20073;-77
2022/05/28 09:08:25;;;;;;;5.15;2.47;;;18.50;99.90;;;;;;5064641;28;20488;-77
2022/05/28 09:10:53;;;;;;;3.30;1.98;;;18.40;99.90;;;;;;5051614;28;20044;-77
2022/05/28 09:13:29;;;;;;;3.00;2.00;;;18.10;99.90;;;;;;5050395;28;20041;-76
2022/05/28 09:15:59;;;;;;;;;;;17.90;99.90;;;;;;5053418;28;20051;-78
2022/05/28 09:18:33;;;;;;;5.50;2.40;;;17.60;99.90;;;;;;5052370;28;19920;-77
2022/05/28 09:21:02;;;;;;;3.55;1.88;;;17.70;99.90;;;;;;5054366;28;20513;-77
2022/05/28 09:23:37;;;;;;;3.58;2.13;;;17.80;99.90;;;;;;5053153;28;20044;-77
2022/05/28 09:26:06;;;;;;;4.03;2.30;;;17.70;99.90;;;;;;5054809;28;20043;-78
2022/05/28 09:28:50;;;;;;;4.88;2.40;;;17.70;99.90;;;;;;5054873;28;20049;-76
2022/05/28 09:31:32;;;;;;;4.78;2.33;;;17.60;99.90;;;;;;5054189;28;20370;-76
2022/05/28 09:34:12;;;;;;;5.03;2.00;;;17.80;99.90;;;;;;5054779;28;20046;-77
2022/05/28 09:36:48;;;;;;;5.97;2.50;;;17.80;99.90;;;;;;5067937;28;20037;-76
2022/05/28 09:39:28;;;;;;;5.78;2.17;;;17.80;99.90;;;;;;5053690;28;20037;-76
2022/05/28 09:42:05;;;;;;;6.80;2.90;;;17.50;99.90;;;;;;5068047;28;20039;-78
2022/05/28 09:44:46;;;;;;;5.38;2.60;;;17.50;99.90;;;;;;5065808;28;20044;-77
2022/05/28 09:47:17;;;;;;;5.18;2.45;;;17.60;99.90;;;;;;5056333;28;20111;-77
2022/05/28 09:49:51;;;;;;;5.10;2.55;;;17.50;99.90;;;;;;5056013;28;20053;-77
2022/05/28 09:52:25;;;;;;;7.00;3.63;;;17.70;99.90;;;;;;5056635;28;20041;-78
2022/05/28 09:54:52;;;;;;;5.13;2.63;;;17.80;99.90;;;;;;5055776;28;20048;-77
2022/05/28 09:57:25;;;;;;;4.60;2.65;;;17.80;99.90;;;;;;5056064;28;20060;-77
2022/05/28 09:59:55;;;;;;;3.95;2.30;;;17.80;99.90;;;;;;5055409;28;20044;-77
2022/05/28 10:02:28;;;;;;;4.82;2.78;;;17.80;99.90;;;;;;5054736;28;20044;-78
2022/05/28 10:04:57;;;;;;;5.15;2.85;;;17.50;99.90;;;;;;5058699;28;20040;-76
2022/05/28 10:07:32;;;;;;;4.75;2.80;;;17.20;99.90;;;;;;5055443;28;20550;-77
2022/05/28 10:10:00;;;;;;;7.57;3.17;;;17.00;99.90;;;;;;5055735;28;20053;-77
2022/05/28 10:12:31;;;;;;;4.97;2.83;;;17.10;99.90;;;;;;5055013;28;20423;-77
2022/05/28 10:15:06;;;;;;;4.93;2.53;;;17.00;99.90;;;;;;5055424;28;20144;-77
2022/05/28 10:17:35;;;;;;;5.80;2.63;;;16.70;99.90;;;;;;5055045;28;20376;-79
2022/05/28 10:20:05;;;;;;;3.05;2.30;;;16.80;99.90;;;;;;5055517;28;20049;-76
2022/05/28 10:22:33;;;;;;;4.70;2.60;;;16.80;99.90;;;;;;5055314;28;20037;-77
2022/05/28 10:25:04;;;;;;;7.10;2.80;;;16.80;99.90;;;;;;5056103;28;20396;-78
2022/05/28 10:27:37;;;;;;;6.10;2.55;;;16.70;99.90;;;;;;5053306;28;20049;-77
2022/05/28 10:30:08;;;;;;;5.45;2.67;;;16.30;99.90;;;;;;5036667;28;20049;-76
2022/05/28 10:32:42;;;;;;;4.97;2.55;;;16.40;99.90;;;;;;5045574;28;20048;-77
2022/05/28 10:35:25;;;;;;;8.38;3.17;;;16.40;99.90;;;;;;5055316;28;20119;-77
2022/05/28 10:37:52;;;;;;;9.60;2.60;;;16.40;99.90;;;;;;5054122;28;20449;-77
2022/05/28 10:40:24;;;;;;;5.55;2.20;;;16.50;99.90;;;;;;5055671;28;20538;-78
2022/05/28 10:42:57;;;;;;;3.75;2.30;;;16.50;99.90;;;;;;5054942;28;20049;-75
2022/05/28 10:45:27;;;;;;;5.78;2.20;;;16.40;99.90;;;;;;5055237;28;20064;-77
2022/05/28 10:48:19;;;;;;;4.63;2.47;;;16.60;99.90;;;;;;5056126;28;20385;-78
2022/05/28 10:50:59;;;;;;;4.07;2.38;;;16.50;99.90;;;;;;5055920;28;20041;-78
2022/05/28 10:53:55;;;;;;;4.15;2.30;;;16.40;99.90;;;;;;5055029;28;20037;-78
2022/05/28 10:56:34;;;;;;;10.13;6.77;;;16.40;99.90;;;;;;5057373;28;20068;-79
2022/05/28 10:59:15;;;;;;;5.85;2.72;;;16.40;99.90;;;;;;5055225;28;20041;-77
2022/05/28 11:01:50;;;;;;;6.07;3.30;;;16.40;99.90;;;;;;5055264;28;20132;-76
2022/05/28 11:04:40;;;;;;;4.80;2.50;;;16.40;99.90;;;;;;5054164;28;20052;-75
2022/05/28 11:07:39;;;;;;;6.68;3.00;;;16.40;99.90;;;;;;5053962;28;20044;-75
2022/05/28 11:10:27;;;;;;;5.63;2.80;;;16.40;99.90;;;;;;5051349;28;20053;-75
2022/05/28 11:13:14;;;;;;;6.55;2.83;;;16.30;99.90;;;;;;5042396;28;20033;-75
2022/05/28 11:15:55;;;;;;;5.90;3.10;;;16.30;99.90;;;;;;5039568;28;20056;-75
2022/05/28 11:18:55;;;;;;;6.15;2.72;;;16.30;99.90;;;;;;5041236;28;20065;-75
2022/05/28 11:21:49;;;;;;;5.70;4.05;;;16.00;99.90;;;;;;5037811;28;20057;-76
2022/05/28 11:24:38;;;;;;;7.10;3.90;;;16.00;99.90;;;;;;5038424;28;20099;-76
2022/05/28 11:27:17;;;;;;;8.45;4.47;;;16.20;99.90;;;;;;5058695;28;20046;-76
2022/05/28 11:29:54;;;;;;;6.07;2.95;;;16.20;99.90;;;;;;5049390;28;20052;-75
2022/05/28 11:32:26;;;;;;;7.32;3.90;;;16.00;99.90;;;;;;5051795;28;20049;-76
2022/05/28 11:34:56;;;;;;;8.38;4.13;;;16.00;99.90;;;;;;5054162;28;20047;-76
2022/05/28 11:37:32;;;;;;;5.38;2.72;;;16.10;99.90;;;;;;5053961;28;20491;-74
2022/05/28 11:40:05;;;;;;;6.78;2.80;;;16.20;99.90;;;;;;5052602;28;20051;-77
2022/05/28 11:42:42;;;;;;;5.72;2.42;;;16.20;99.90;;;;;;5053637;28;20041;-75
2022/05/28 11:45:14;;;;;;;3.63;2.22;;;15.90;99.90;;;;;;5052137;28;20573;-77
2022/05/28 11:47:51;;;;;;;5.95;2.50;;;15.90;99.90;;;;;;5035049;28;20044;-76
2022/05/28 11:53:20;;;;;;;4.10;2.70;;;15.90;99.90;;;;;;5051497;28;20049;-75
2022/05/28 11:55:53;;;;;;;4.25;2.17;;;15.90;99.90;;;;;;5052261;28;20044;-75
2022/05/28 11:58:25;;;;;;;7.00;3.28;;;16.10;99.90;;;;;;5051509;28;20053;-75
2022/05/28 12:00:55;;;;;;;7.70;2.60;;;16.10;99.90;;;;;;5052491;28;20114;-75
2022/05/28 12:03:25;;;;;;;4.15;2.05;;;16.20;99.90;;;;;;5050949;28;20041;-76
2022/05/28 12:05:55;;;;;;;5.05;2.20;;;16.00;99.90;;;;;;5051375;28;20049;-76
2022/05/28 12:08:29;;;;;;;5.18;1.83;;;16.20;99.90;;;;;;5052361;28;20106;-76
2022/05/28 12:11:01;;;;;;;4.28;2.15;;;16.20;99.90;;;;;;5052823;28;20041;-75
2022/05/28 12:13:33;;;;;;;6.03;2.28;;;16.40;99.90;;;;;;5051317;28;20095;-75
2022/05/28 12:16:12;;;;;;;6.38;3.30;;;16.60;99.90;;;;;;5052794;28;20407;-75
2022/05/28 12:18:44;;;;;;;7.55;4.07;;;16.60;99.90;;;;;;5052200;28;20091;-75
2022/05/28 12:21:11;;;;;;;7.43;4.18;;;16.80;99.90;;;;;;5051517;28;20049;-75
2022/05/28 12:23:42;;;;;;;6.35;3.38;;;17.10;99.90;;;;;;5052646;28;20098;-75
2022/05/28 12:26:47;;;;;;;7.80;3.70;;;17.20;99.90;;;;;;5052684;28;20048;-75
2022/05/28 12:29:38;;;;;;;7.20;4.20;;;17.30;99.90;;;;;;5052850;28;20550;-75
2022/05/28 12:32:21;;;;;;;8.95;3.75;;;17.20;99.90;;;;;;5052803;28;20051;-76
2022/05/28 12:34:54;;;;;;;4.15;2.40;;;16.90;99.90;;;;;;5050624;28;20120;-75
2022/05/28 12:37:25;;;;;;;5.85;4.20;;;16.60;99.90;;;;;;5051423;28;20492;-75
2022/05/28 12:40:12;;;;;;;5.05;1.95;;;16.70;99.90;;;;;;5053505;28;20045;-75
2022/05/28 12:42:41;;;;;;;4.82;2.47;;;16.60;99.90;;;;;;5052590;28;20044;-75
2022/05/28 12:45:15;;;;;;;4.43;1.98;;;16.70;99.90;;;;;;5052502;28;20394;-75
2022/05/28 12:47:43;;;;;;;4.68;2.35;;;16.40;99.90;;;;;;5049249;28;20045;-76
2022/05/28 12:50:21;;;;;;;4.95;2.40;;;16.40;99.90;;;;;;5051146;28;20045;-76
2022/05/28 12:52:57;;;;;;;4.07;2.08;;;16.50;99.90;;;;;;5051438;28;20044;-76
2022/05/28 12:55:36;;;;;;;6.75;2.30;;;16.30;99.90;;;;;;5050974;28;20049;-75
2022/05/28 12:58:07;;;;;;;4.35;1.85;;;16.30;99.90;;;;;;5050952;28;20056;-76
2022/05/28 13:00:47;;;;;;;5.18;2.33;;;16.10;99.90;;;;;;5053232;28;20041;-75
2022/05/28 13:03:17;;;;;;;7.45;2.20;;;15.90;99.90;;;;;;5052278;28;20045;-76
2022/05/28 13:05:50;;;;;;;5.32;2.22;;;15.90;99.90;;;;;;5050645;28;20075;-76
2022/05/28 13:08:22;;;;;;;6.38;1.90;;;15.80;99.90;;;;;;5056221;28;20119;-76
2022/05/28 13:10:56;;;;;;;4.82;2.15;;;15.90;99.90;;;;;;5054944;28;20041;-74
2022/05/28 13:13:52;;;;;;;4.15;1.95;;;16.10;99.90;;;;;;5054698;28;20041;-76